sensor_id;sensor_type;location;lat;lon;timestamp;P1;durP1;ratioP1;P2;durP2;ratioP2
29344;SDS011;16339;48.748;2.222;2023-04-06T00:01:22;16.58;;;5.32;;
29344;SDS011;16339;48.748;2.222;2023-04-06T00:03:51;11.95;;;6.22;;
29344;SDS011;16339;48.748;2.222;2023-04-06T00:06:20;13.35;;;5.63;;
29344;SDS011;16339;48.748;2.222;2023-04-06T00:08:48;12.63;;;5.53;;
29344;SDS011;16339;48.748;2.222;2023-04-06T00:11:17;10.13;;;5.90;;
29344;SDS011;16339;48.748;2.222;2023-04-06T00:13:46;12.57;;;5.72;;
29344;SDS011;16339;48.748;2.222;2023-04-06T00:16:17;11.48;;;5.55;;
29344;SDS011;16339;48.748;2.222;2023-04-06T00:18:46;11.40;;;5.78;;
29344;SDS011;16339;48.748;2.222;2023-04-06T00:21:15;10.70;;;5.30;;
29344;SDS011;16339;48.748;2.222;2023-04-06T00:23:43;15.55;;;5.75;;
29344;SDS011;16339;48.748;2.222;2023-04-06T00:26:12;19.73;;;5.82;;
29344;SDS011;16339;48.748;2.222;2023-04-06T00:28:41;13.02;;;6.20;;
29344;SDS011;16339;48.748;2.222;2023-04-06T00:31:10;15.95;;;6.43;;
29344;SDS011;16339;48.748;2.222;2023-04-06T00:33:41;11.45;;;5.93;;
29344;SDS011;16339;48.748;2.222;2023-04-06T00:36:10;10.15;;;5.40;;
29344;SDS011;16339;48.748;2.222;2023-04-06T00:38:39;11.45;;;5.95;;
29344;SDS011;16339;48.748;2.222;2023-04-06T00:41:08;13.57;;;5.90;;
29344;SDS011;16339;48.748;2.222;2023-04-06T00:43:36;11.85;;;6.10;;
29344;SDS011;16339;48.748;2.222;2023-04-06T00:46:05;12.52;;;6.32;;
29344;SDS011;16339;48.748;2.222;2023-04-06T00:48:34;9.45;;;5.38;;
29344;SDS011;16339;48.748;2.222;2023-04-06T00:51:06;11.02;;;5.75;;
29344;SDS011;16339;48.748;2.222;2023-04-06T00:53:35;12.52;;;6.45;;
29344;SDS011;16339;48.748;2.222;2023-04-06T00:56:04;12.93;;;6.68;;
29344;SDS011;16339;48.748;2.222;2023-04-06T00:58:34;10.93;;;5.45;;
29344;SDS011;16339;48.748;2.222;2023-04-06T01:01:05;14.18;;;6.07;;
29344;SDS011;16339;48.748;2.222;2023-04-06T01:03:34;10.25;;;5.70;;
29344;SDS011;16339;48.748;2.222;2023-04-06T01:06:03;13.20;;;5.85;;
29344;SDS011;16339;48.748;2.222;2023-04-06T01:11:03;10.98;;;6.20;;
29344;SDS011;16339;48.748;2.222;2023-04-06T01:13:32;10.68;;;5.80;;
29344;SDS011;16339;48.748;2.222;2023-04-06T01:16:01;12.15;;;6.10;;
29344;SDS011;16339;48.748;2.222;2023-04-06T01:18:34;13.20;;;6.57;;
29344;SDS011;16339;48.748;2.222;2023-04-06T01:21:07;11.90;;;6.10;;
29344;SDS011;16339;48.748;2.222;2023-04-06T01:23:43;13.75;;;5.93;;
29344;SDS011;16339;48.748;2.222;2023-04-06T01:26:13;11.18;;;6.03;;
29344;SDS011;16339;48.748;2.222;2023-04-06T01:28:42;11.35;;;6.03;;
29344;SDS011;16339;48.748;2.222;2023-04-06T01:31:10;12.57;;;5.60;;
29344;SDS011;16339;48.748;2.222;2023-04-06T01:33:39;14.48;;;5.60;;
29344;SDS011;16339;48.748;2.222;2023-04-06T01:36:08;11.43;;;6.13;;
29344;SDS011;16339;48.748;2.222;2023-04-06T01:38:37;13.98;;;6.43;;
29344;SDS011;16339;48.748;2.222;2023-04-06T01:41:09;13.70;;;6.05;;
29344;SDS011;16339;48.748;2.222;2023-04-06T01:43:37;15.45;;;6.65;;
29344;SDS011;16339;48.748;2.222;2023-04-06T01:46:06;13.05;;;6.30;;
29344;SDS011;16339;48.748;2.222;2023-04-06T01:48:35;16.50;;;6.38;;
29344;SDS011;16339;48.748;2.222;2023-04-06T01:51:04;14.30;;;6.20;;
29344;SDS011;16339;48.748;2.222;2023-04-06T01:53:32;12.65;;;6.03;;
29344;SDS011;16339;48.748;2.222;2023-04-06T01:56:01;13.05;;;5.90;;
29344;SDS011;16339;48.748;2.222;2023-04-06T01:58:33;12.27;;;5.55;;
29344;SDS011;16339;48.748;2.222;2023-04-06T02:01:02;12.85;;;5.72;;
29344;SDS011;16339;48.748;2.222;2023-04-06T02:03:30;19.63;;;6.10;;
29344;SDS011;16339;48.748;2.222;2023-04-06T02:05:59;18.48;;;5.85;;
29344;SDS011;16339;48.748;2.222;2023-04-06T02:08:28;14.10;;;5.63;;
29344;SDS011;16339;48.748;2.222;2023-04-06T02:10:57;9.77;;;6.00;;
29344;SDS011;16339;48.748;2.222;2023-04-06T02:13:26;15.63;;;5.68;;
29344;SDS011;16339;48.748;2.222;2023-04-06T02:15:57;14.38;;;5.38;;
29344;SDS011;16339;48.748;2.222;2023-04-06T02:18:27;13.68;;;5.50;;
29344;SDS011;16339;48.748;2.222;2023-04-06T02:20:56;12.88;;;6.18;;
29344;SDS011;16339;48.748;2.222;2023-04-06T02:23:25;9.82;;;5.97;;
29344;SDS011;16339;48.748;2.222;2023-04-06T02:25:55;14.68;;;6.45;;
29344;SDS011;16339;48.748;2.222;2023-04-06T02:28:23;18.38;;;6.90;;
29344;SDS011;16339;48.748;2.222;2023-04-06T02:30:52;16.50;;;6.80;;
29344;SDS011;16339;48.748;2.222;2023-04-06T02:33:23;15.48;;;7.00;;
29344;SDS011;16339;48.748;2.222;2023-04-06T02:35:52;13.73;;;7.32;;
29344;SDS011;16339;48.748;2.222;2023-04-06T02:38:21;16.77;;;6.88;;
29344;SDS011;16339;48.748;2.222;2023-04-06T02:40:50;17.85;;;7.03;;
29344;SDS011;16339;48.748;2.222;2023-04-06T02:43:18;15.32;;;6.60;;
29344;SDS011;16339;48.748;2.222;2023-04-06T02:45:47;19.55;;;6.38;;
29344;SDS011;16339;48.748;2.222;2023-04-06T02:48:16;16.65;;;6.78;;
29344;SDS011;16339;48.748;2.222;2023-04-06T02:50:47;13.93;;;5.70;;
29344;SDS011;16339;48.748;2.222;2023-04-06T02:53:16;12.13;;;6.57;;
29344;SDS011;16339;48.748;2.222;2023-04-06T02:55:45;13.57;;;6.55;;
29344;SDS011;16339;48.748;2.222;2023-04-06T02:58:14;11.45;;;6.15;;
29344;SDS011;16339;48.748;2.222;2023-04-06T03:00:43;19.92;;;5.80;;
29344;SDS011;16339;48.748;2.222;2023-04-06T03:03:11;10.98;;;5.95;;
29344;SDS011;16339;48.748;2.222;2023-04-06T03:05:40;12.77;;;6.18;;
29344;SDS011;16339;48.748;2.222;2023-04-06T03:08:12;19.80;;;6.40;;
29344;SDS011;16339;48.748;2.222;2023-04-06T03:10:40;18.80;;;7.25;;
29344;SDS011;16339;48.748;2.222;2023-04-06T03:13:09;17.23;;;8.70;;
29344;SDS011;16339;48.748;2.222;2023-04-06T03:15:38;20.52;;;8.52;;
29344;SDS011;16339;48.748;2.222;2023-04-06T03:18:07;19.25;;;7.93;;
29344;SDS011;16339;48.748;2.222;2023-04-06T03:20:35;16.02;;;7.78;;
29344;SDS011;16339;48.748;2.222;2023-04-06T03:23:04;13.93;;;7.18;;
29344;SDS011;16339;48.748;2.222;2023-04-06T03:25:35;16.50;;;7.32;;
29344;SDS011;16339;48.748;2.222;2023-04-06T03:28:04;16.48;;;7.25;;
29344;SDS011;16339;48.748;2.222;2023-04-06T03:30:33;20.40;;;6.45;;
29344;SDS011;16339;48.748;2.222;2023-04-06T03:33:05;14.10;;;6.70;;
29344;SDS011;16339;48.748;2.222;2023-04-06T03:35:34;17.70;;;7.32;;
29344;SDS011;16339;48.748;2.222;2023-04-06T03:38:02;14.63;;;6.60;;
29344;SDS011;16339;48.748;2.222;2023-04-06T03:40:31;12.55;;;6.47;;
29344;SDS011;16339;48.748;2.222;2023-04-06T03:43:03;14.57;;;7.72;;
29344;SDS011;16339;48.748;2.222;2023-04-06T03:45:32;16.70;;;7.43;;
29344;SDS011;16339;48.748;2.222;2023-04-06T03:48:01;18.00;;;8.05;;
29344;SDS011;16339;48.748;2.222;2023-04-06T03:50:30;19.25;;;7.40;;
29344;SDS011;16339;48.748;2.222;2023-04-06T03:52:58;15.57;;;7.90;;
29344;SDS011;16339;48.748;2.222;2023-04-06T03:55:28;18.30;;;7.72;;
29344;SDS011;16339;48.748;2.222;2023-04-06T03:57:56;17.35;;;7.78;;
29344;SDS011;16339;48.748;2.222;2023-04-06T04:00:28;15.45;;;7.45;;
29344;SDS011;16339;48.748;2.222;2023-04-06T04:02:58;12.95;;;7.07;;
29344;SDS011;16339;48.748;2.222;2023-04-06T04:05:27;20.63;;;8.48;;
29344;SDS011;16339;48.748;2.222;2023-04-06T04:07:56;22.10;;;8.65;;
29344;SDS011;16339;48.748;2.222;2023-04-06T04:10:24;17.42;;;7.47;;
29344;SDS011;16339;48.748;2.222;2023-04-06T04:12:53;19.85;;;9.93;;
29344;SDS011;16339;48.748;2.222;2023-04-06T04:15:22;17.02;;;8.75;;
29344;SDS011;16339;48.748;2.222;2023-04-06T04:17:53;17.42;;;8.98;;
29344;SDS011;16339;48.748;2.222;2023-04-06T04:20:22;15.65;;;7.70;;
29344;SDS011;16339;48.748;2.222;2023-04-06T04:22:51;19.92;;;7.38;;
29344;SDS011;16339;48.748;2.222;2023-04-06T04:25:20;17.48;;;7.07;;
29344;SDS011;16339;48.748;2.222;2023-04-06T04:27:48;17.48;;;8.05;;
29344;SDS011;16339;48.748;2.222;2023-04-06T04:30:17;22.27;;;7.72;;
29344;SDS011;16339;48.748;2.222;2023-04-06T04:32:46;18.08;;;6.82;;
29344;SDS011;16339;48.748;2.222;2023-04-06T04:35:18;14.45;;;6.97;;
29344;SDS011;16339;48.748;2.222;2023-04-06T04:37:46;15.70;;;7.80;;
29344;SDS011;16339;48.748;2.222;2023-04-06T04:40:15;18.98;;;8.40;;
29344;SDS011;16339;48.748;2.222;2023-04-06T04:42:44;18.63;;;8.23;;
29344;SDS011;16339;48.748;2.222;2023-04-06T04:45:13;15.85;;;9.25;;
29344;SDS011;16339;48.748;2.222;2023-04-06T04:47:42;18.45;;;7.82;;
29344;SDS011;16339;48.748;2.222;2023-04-06T04:50:10;17.60;;;7.15;;
29344;SDS011;16339;48.748;2.222;2023-04-06T04:52:42;18.90;;;8.00;;
29344;SDS011;16339;48.748;2.222;2023-04-06T04:55:10;15.60;;;7.28;;
29344;SDS011;16339;48.748;2.222;2023-04-06T04:57:39;21.10;;;7.68;;
29344;SDS011;16339;48.748;2.222;2023-04-06T05:00:08;15.45;;;7.80;;
29344;SDS011;16339;48.748;2.222;2023-04-06T05:02:38;16.45;;;7.57;;
29344;SDS011;16339;48.748;2.222;2023-04-06T05:05:07;19.17;;;8.00;;
29344;SDS011;16339;48.748;2.222;2023-04-06T05:07:36;13.55;;;7.47;;
29344;SDS011;16339;48.748;2.222;2023-04-06T05:10:08;15.48;;;8.15;;
29344;SDS011;16339;48.748;2.222;2023-04-06T05:12:37;19.02;;;7.75;;
29344;SDS011;16339;48.748;2.222;2023-04-06T05:15:06;20.42;;;7.50;;
29344;SDS011;16339;48.748;2.222;2023-04-06T05:17:39;18.67;;;7.78;;
29344;SDS011;16339;48.748;2.222;2023-04-06T05:20:08;17.50;;;8.48;;
29344;SDS011;16339;48.748;2.222;2023-04-06T05:22:37;16.58;;;7.80;;
29344;SDS011;16339;48.748;2.222;2023-04-06T05:25:09;17.58;;;9.20;;
29344;SDS011;16339;48.748;2.222;2023-04-06T05:30:07;22.17;;;8.40;;
29344;SDS011;16339;48.748;2.222;2023-04-06T05:32:36;21.00;;;8.80;;
29344;SDS011;16339;48.748;2.222;2023-04-06T05:35:05;24.05;;;8.50;;
29344;SDS011;16339;48.748;2.222;2023-04-06T05:37:34;20.70;;;8.45;;
29344;SDS011;16339;48.748;2.222;2023-04-06T05:40:03;17.80;;;8.23;;
29344;SDS011;16339;48.748;2.222;2023-04-06T05:42:39;14.20;;;7.97;;
29344;SDS011;16339;48.748;2.222;2023-04-06T05:45:09;22.33;;;8.23;;
29344;SDS011;16339;48.748;2.222;2023-04-06T05:47:41;14.27;;;7.63;;
29344;SDS011;16339;48.748;2.222;2023-04-06T05:50:11;19.33;;;8.57;;
29344;SDS011;16339;48.748;2.222;2023-04-06T05:52:40;17.25;;;8.50;;
29344;SDS011;16339;48.748;2.222;2023-04-06T05:55:11;16.77;;;8.50;;
29344;SDS011;16339;48.748;2.222;2023-04-06T05:57:43;30.08;;;8.88;;
29344;SDS011;16339;48.748;2.222;2023-04-06T06:00:14;26.67;;;9.30;;
29344;SDS011;16339;48.748;2.222;2023-04-06T06:02:44;22.02;;;8.85;;
29344;SDS011;16339;48.748;2.222;2023-04-06T06:05:13;18.52;;;8.85;;
29344;SDS011;16339;48.748;2.222;2023-04-06T06:07:42;17.23;;;9.57;;
29344;SDS011;16339;48.748;2.222;2023-04-06T06:10:11;21.75;;;9.55;;
29344;SDS011;16339;48.748;2.222;2023-04-06T06:12:42;23.85;;;9.18;;
29344;SDS011;16339;48.748;2.222;2023-04-06T06:15:11;19.10;;;8.73;;
29344;SDS011;16339;48.748;2.222;2023-04-06T06:17:40;23.35;;;9.73;;
29344;SDS011;16339;48.748;2.222;2023-04-06T06:20:09;20.90;;;10.00;;
29344;SDS011;16339;48.748;2.222;2023-04-06T06:22:39;22.65;;;10.05;;
29344;SDS011;16339;48.748;2.222;2023-04-06T06:25:08;22.77;;;11.27;;
29344;SDS011;16339;48.748;2.222;2023-04-06T06:27:36;24.58;;;11.70;;
29344;SDS011;16339;48.748;2.222;2023-04-06T06:30:08;24.33;;;10.30;;
29344;SDS011;16339;48.748;2.222;2023-04-06T06:32:37;31.33;;;11.10;;
29344;SDS011;16339;48.748;2.222;2023-04-06T06:35:07;18.70;;;10.13;;
29344;SDS011;16339;48.748;2.222;2023-04-06T06:37:36;21.10;;;9.60;;
29344;SDS011;16339;48.748;2.222;2023-04-06T06:40:05;19.48;;;9.43;;
29344;SDS011;16339;48.748;2.222;2023-04-06T06:42:35;27.17;;;10.30;;
29344;SDS011;16339;48.748;2.222;2023-04-06T06:45:04;29.38;;;11.02;;
29344;SDS011;16339;48.748;2.222;2023-04-06T06:47:37;24.80;;;10.43;;
29344;SDS011;16339;48.748;2.222;2023-04-06T06:50:06;25.08;;;10.63;;
29344;SDS011;16339;48.748;2.222;2023-04-06T06:52:37;24.83;;;11.20;;
29344;SDS011;16339;48.748;2.222;2023-04-06T06:55:07;22.85;;;12.40;;
29344;SDS011;16339;48.748;2.222;2023-04-06T06:57:37;32.80;;;13.40;;
29344;SDS011;16339;48.748;2.222;2023-04-06T07:00:10;24.13;;;12.30;;
29344;SDS011;16339;48.748;2.222;2023-04-06T07:02:40;23.05;;;11.38;;
29344;SDS011;16339;48.748;2.222;2023-04-06T07:05:09;30.73;;;11.60;;
29344;SDS011;16339;48.748;2.222;2023-04-06T07:07:38;18.75;;;10.68;;
29344;SDS011;16339;48.748;2.222;2023-04-06T07:10:07;24.85;;;11.13;;
29344;SDS011;16339;48.748;2.222;2023-04-06T07:12:36;20.63;;;10.77;;
29344;SDS011;16339;48.748;2.222;2023-04-06T07:15:06;21.08;;;11.90;;
29344;SDS011;16339;48.748;2.222;2023-04-06T07:17:38;29.75;;;13.75;;
29344;SDS011;16339;48.748;2.222;2023-04-06T07:20:09;30.40;;;13.98;;
29344;SDS011;16339;48.748;2.222;2023-04-06T07:22:38;28.63;;;14.40;;
29344;SDS011;16339;48.748;2.222;2023-04-06T07:25:07;24.48;;;12.98;;
29344;SDS011;16339;48.748;2.222;2023-04-06T07:27:36;28.50;;;12.90;;
29344;SDS011;16339;48.748;2.222;2023-04-06T07:30:06;32.92;;;14.52;;
29344;SDS011;16339;48.748;2.222;2023-04-06T07:32:38;27.15;;;13.43;;
29344;SDS011;16339;48.748;2.222;2023-04-06T07:35:07;26.92;;;14.35;;
29344;SDS011;16339;48.748;2.222;2023-04-06T07:37:36;27.70;;;14.65;;
29344;SDS011;16339;48.748;2.222;2023-04-06T07:40:05;25.73;;;14.55;;
29344;SDS011;16339;48.748;2.222;2023-04-06T07:42:35;26.95;;;14.75;;
29344;SDS011;16339;48.748;2.222;2023-04-06T07:45:04;28.15;;;14.82;;
29344;SDS011;16339;48.748;2.222;2023-04-06T07:47:36;30.10;;;15.52;;
29344;SDS011;16339;48.748;2.222;2023-04-06T07:50:05;31.13;;;15.32;;
29344;SDS011;16339;48.748;2.222;2023-04-06T07:52:35;31.27;;;16.52;;
29344;SDS011;16339;48.748;2.222;2023-04-06T07:55:04;32.45;;;15.90;;
29344;SDS011;16339;48.748;2.222;2023-04-06T07:57:33;34.58;;;16.67;;
29344;SDS011;16339;48.748;2.222;2023-04-06T08:00:03;40.28;;;16.38;;
29344;SDS011;16339;48.748;2.222;2023-04-06T08:02:37;33.05;;;16.83;;
29344;SDS011;16339;48.748;2.222;2023-04-06T08:07:35;40.05;;;17.90;;
29344;SDS011;16339;48.748;2.222;2023-04-06T08:10:04;32.42;;;17.30;;
29344;SDS011;16339;48.748;2.222;2023-04-06T08:12:34;36.70;;;16.30;;
29344;SDS011;16339;48.748;2.222;2023-04-06T08:15:07;39.28;;;17.77;;
29344;SDS011;16339;48.748;2.222;2023-04-06T08:17:38;29.58;;;17.42;;
29344;SDS011;16339;48.748;2.222;2023-04-06T08:20:07;33.17;;;18.13;;
29344;SDS011;16339;48.748;2.222;2023-04-06T08:22:37;33.50;;;17.60;;
29344;SDS011;16339;48.748;2.222;2023-04-06T08:25:06;38.20;;;17.63;;
29344;SDS011;16339;48.748;2.222;2023-04-06T08:27:35;29.42;;;17.05;;
29344;SDS011;16339;48.748;2.222;2023-04-06T08:30:04;35.10;;;18.33;;
29344;SDS011;16339;48.748;2.222;2023-04-06T08:32:33;32.90;;;18.05;;
29344;SDS011;16339;48.748;2.222;2023-04-06T08:35:22;34.08;;;18.08;;
29344;SDS011;16339;48.748;2.222;2023-04-06T08:37:50;36.88;;;18.92;;
29344;SDS011;16339;48.748;2.222;2023-04-06T08:40:19;34.47;;;18.30;;
29344;SDS011;16339;48.748;2.222;2023-04-06T08:42:50;35.30;;;18.95;;
29344;SDS011;16339;48.748;2.222;2023-04-06T08:45:22;38.08;;;20.02;;
29344;SDS011;16339;48.748;2.222;2023-04-06T08:47:51;33.80;;;19.02;;
29344;SDS011;16339;48.748;2.222;2023-04-06T08:50:24;35.40;;;18.15;;
29344;SDS011;16339;48.748;2.222;2023-04-06T08:53:03;38.00;;;18.60;;
29344;SDS011;16339;48.748;2.222;2023-04-06T08:55:33;38.45;;;18.90;;
29344;SDS011;16339;48.748;2.222;2023-04-06T08:58:03;33.10;;;17.02;;
29344;SDS011;16339;48.748;2.222;2023-04-06T09:00:36;29.90;;;17.55;;
29344;SDS011;16339;48.748;2.222;2023-04-06T09:03:07;35.70;;;17.88;;
29344;SDS011;16339;48.748;2.222;2023-04-06T09:05:39;30.33;;;17.13;;
29344;SDS011;16339;48.748;2.222;2023-04-06T09:10:38;28.77;;;15.80;;
29344;SDS011;16339;48.748;2.222;2023-04-06T09:13:08;34.83;;;16.35;;
29344;SDS011;16339;48.748;2.222;2023-04-06T09:15:37;28.10;;;16.08;;
29344;SDS011;16339;48.748;2.222;2023-04-06T09:18:06;31.65;;;17.15;;
29344;SDS011;16339;48.748;2.222;2023-04-06T09:20:35;30.35;;;15.95;;
29344;SDS011;16339;48.748;2.222;2023-04-06T09:23:07;32.72;;;18.20;;
29344;SDS011;16339;48.748;2.222;2023-04-06T09:25:45;31.60;;;17.73;;
29344;SDS011;16339;48.748;2.222;2023-04-06T09:28:14;28.35;;;17.25;;
29344;SDS011;16339;48.748;2.222;2023-04-06T09:30:47;26.52;;;15.35;;
29344;SDS011;16339;48.748;2.222;2023-04-06T09:33:33;26.80;;;15.00;;
29344;SDS011;16339;48.748;2.222;2023-04-06T09:36:05;24.88;;;14.07;;
29344;SDS011;16339;48.748;2.222;2023-04-06T09:38:40;30.35;;;14.88;;
29344;SDS011;16339;48.748;2.222;2023-04-06T09:41:23;23.95;;;14.00;;
29344;SDS011;16339;48.748;2.222;2023-04-06T09:44:05;25.95;;;14.00;;
29344;SDS011;16339;48.748;2.222;2023-04-06T09:46:47;21.52;;;13.13;;
29344;SDS011;16339;48.748;2.222;2023-04-06T09:49:15;25.95;;;14.07;;
29344;SDS011;16339;48.748;2.222;2023-04-06T09:51:46;24.00;;;12.27;;
29344;SDS011;16339;48.748;2.222;2023-04-06T09:54:30;19.27;;;11.60;;
29344;SDS011;16339;48.748;2.222;2023-04-06T09:57:02;19.33;;;10.80;;
29344;SDS011;16339;48.748;2.222;2023-04-06T09:59:38;21.50;;;11.80;;
29344;SDS011;16339;48.748;2.222;2023-04-06T10:02:15;19.50;;;10.90;;
29344;SDS011;16339;48.748;2.222;2023-04-06T10:04:54;23.88;;;11.90;;
29344;SDS011;16339;48.748;2.222;2023-04-06T10:07:26;19.92;;;11.90;;
29344;SDS011;16339;48.748;2.222;2023-04-06T10:09:59;22.02;;;11.35;;
29344;SDS011;16339;48.748;2.222;2023-04-06T10:12:32;18.15;;;10.50;;
29344;SDS011;16339;48.748;2.222;2023-04-06T10:15:01;15.50;;;9.43;;
29344;SDS011;16339;48.748;2.222;2023-04-06T10:17:30;15.57;;;9.27;;
29344;SDS011;16339;48.748;2.222;2023-04-06T10:20:02;17.35;;;10.43;;
29344;SDS011;16339;48.748;2.222;2023-04-06T10:22:36;21.60;;;9.38;;
29344;SDS011;16339;48.748;2.222;2023-04-06T10:25:12;14.82;;;8.82;;
29344;SDS011;16339;48.748;2.222;2023-04-06T10:30:10;13.68;;;8.25;;
29344;SDS011;16339;48.748;2.222;2023-04-06T10:32:43;14.68;;;8.48;;
29344;SDS011;16339;48.748;2.222;2023-04-06T10:35:13;14.50;;;8.75;;
29344;SDS011;16339;48.748;2.222;2023-04-06T10:37:49;15.13;;;8.83;;
29344;SDS011;16339;48.748;2.222;2023-04-06T10:40:24;15.40;;;8.55;;
29344;SDS011;16339;48.748;2.222;2023-04-06T10:43:06;16.97;;;9.43;;
29344;SDS011;16339;48.748;2.222;2023-04-06T10:45:39;14.88;;;9.07;;
29344;SDS011;16339;48.748;2.222;2023-04-06T10:48:12;16.27;;;9.15;;
29344;SDS011;16339;48.748;2.222;2023-04-06T10:50:43;14.57;;;8.02;;
29344;SDS011;16339;48.748;2.222;2023-04-06T10:53:20;16.10;;;8.20;;
29344;SDS011;16339;48.748;2.222;2023-04-06T10:55:59;14.70;;;8.07;;
29344;SDS011;16339;48.748;2.222;2023-04-06T10:58:31;15.60;;;8.48;;
29344;SDS011;16339;48.748;2.222;2023-04-06T11:01:00;14.05;;;8.27;;
29344;SDS011;16339;48.748;2.222;2023-04-06T11:03:28;14.57;;;7.78;;
29344;SDS011;16339;48.748;2.222;2023-04-06T11:05:59;12.40;;;7.32;;
29344;SDS011;16339;48.748;2.222;2023-04-06T11:08:31;25.35;;;7.80;;
29344;SDS011;16339;48.748;2.222;2023-04-06T11:11:09;11.75;;;7.22;;
29344;SDS011;16339;48.748;2.222;2023-04-06T11:13:41;13.75;;;7.03;;
29344;SDS011;16339;48.748;2.222;2023-04-06T11:16:14;12.38;;;6.57;;
29344;SDS011;16339;48.748;2.222;2023-04-06T11:18:49;10.48;;;6.43;;
29344;SDS011;16339;48.748;2.222;2023-04-06T11:21:30;13.65;;;6.95;;
29344;SDS011;16339;48.748;2.222;2023-04-06T11:24:04;11.65;;;6.32;;
29344;SDS011;16339;48.748;2.222;2023-04-06T11:26:39;9.65;;;5.88;;
29344;SDS011;16339;48.748;2.222;2023-04-06T11:29:09;10.23;;;6.32;;
29344;SDS011;16339;48.748;2.222;2023-04-06T11:31:40;12.70;;;5.82;;
29344;SDS011;16339;48.748;2.222;2023-04-06T11:34:09;10.35;;;5.95;;
29344;SDS011;16339;48.748;2.222;2023-04-06T11:36:44;10.50;;;5.50;;
29344;SDS011;16339;48.748;2.222;2023-04-06T11:39:18;11.80;;;5.93;;
29344;SDS011;16339;48.748;2.222;2023-04-06T11:41:51;12.30;;;5.47;;
29344;SDS011;16339;48.748;2.222;2023-04-06T11:44:31;10.27;;;4.55;;
29344;SDS011;16339;48.748;2.222;2023-04-06T11:47:01;10.75;;;4.93;;
29344;SDS011;16339;48.748;2.222;2023-04-06T11:49:32;8.27;;;4.75;;
29344;SDS011;16339;48.748;2.222;2023-04-06T11:52:14;8.88;;;4.75;;
29344;SDS011;16339;48.748;2.222;2023-04-06T11:54:43;9.25;;;3.92;;
29344;SDS011;16339;48.748;2.222;2023-04-06T11:57:17;7.10;;;3.97;;
29344;SDS011;16339;48.748;2.222;2023-04-06T11:59:46;9.82;;;3.97;;
29344;SDS011;16339;48.748;2.222;2023-04-06T12:02:15;9.75;;;3.80;;
29344;SDS011;16339;48.748;2.222;2023-04-06T12:04:44;6.40;;;3.47;;
29344;SDS011;16339;48.748;2.222;2023-04-06T12:07:14;5.45;;;2.85;;
29344;SDS011;16339;48.748;2.222;2023-04-06T12:09:43;8.63;;;3.45;;
29344;SDS011;16339;48.748;2.222;2023-04-06T12:12:14;6.25;;;3.30;;
29344;SDS011;16339;48.748;2.222;2023-04-06T12:14:44;7.22;;;3.08;;
29344;SDS011;16339;48.748;2.222;2023-04-06T12:17:13;7.07;;;2.60;;
29344;SDS011;16339;48.748;2.222;2023-04-06T12:19:42;5.07;;;2.67;;
29344;SDS011;16339;48.748;2.222;2023-04-06T12:22:10;8.68;;;2.92;;
29344;SDS011;16339;48.748;2.222;2023-04-06T12:24:39;5.93;;;3.10;;
29344;SDS011;16339;48.748;2.222;2023-04-06T12:27:08;7.00;;;3.10;;
29344;SDS011;16339;48.748;2.222;2023-04-06T12:29:39;9.63;;;2.65;;
29344;SDS011;16339;48.748;2.222;2023-04-06T12:32:08;5.85;;;2.55;;
29344;SDS011;16339;48.748;2.222;2023-04-06T12:34:37;6.75;;;2.90;;
29344;SDS011;16339;48.748;2.222;2023-04-06T12:37:06;7.30;;;2.45;;
29344;SDS011;16339;48.748;2.222;2023-04-06T12:39:35;6.03;;;2.92;;
29344;SDS011;16339;48.748;2.222;2023-04-06T12:42:03;5.35;;;3.08;;
29344;SDS011;16339;48.748;2.222;2023-04-06T12:44:33;5.18;;;2.70;;
29344;SDS011;16339;48.748;2.222;2023-04-06T12:47:04;10.02;;;2.80;;
29344;SDS011;16339;48.748;2.222;2023-04-06T12:52:03;7.57;;;2.53;;
29344;SDS011;16339;48.748;2.222;2023-04-06T12:54:32;6.55;;;2.35;;
29344;SDS011;16339;48.748;2.222;2023-04-06T12:57:01;4.72;;;2.45;;
29344;SDS011;16339;48.748;2.222;2023-04-06T12:59:30;6.57;;;2.78;;
29344;SDS011;16339;48.748;2.222;2023-04-06T13:02:00;6.87;;;2.77;;
29344;SDS011;16339;48.748;2.222;2023-04-06T13:04:32;9.50;;;2.60;;
29344;SDS011;16339;48.748;2.222;2023-04-06T13:07:01;7.85;;;2.75;;
29344;SDS011;16339;48.748;2.222;2023-04-06T13:09:30;13.52;;;3.05;;
29344;SDS011;16339;48.748;2.222;2023-04-06T13:11:58;7.78;;;3.13;;
29344;SDS011;16339;48.748;2.222;2023-04-06T13:14:28;8.88;;;3.20;;
29344;SDS011;16339;48.748;2.222;2023-04-06T13:16:57;7.25;;;3.20;;
29344;SDS011;16339;48.748;2.222;2023-04-06T13:19:28;7.13;;;2.80;;
29344;SDS011;16339;48.748;2.222;2023-04-06T13:21:57;9.60;;;2.65;;
29344;SDS011;16339;48.748;2.222;2023-04-06T13:24:25;9.13;;;2.60;;
29344;SDS011;16339;48.748;2.222;2023-04-06T13:26:54;5.97;;;2.53;;
29344;SDS011;16339;48.748;2.222;2023-04-06T13:29:23;4.07;;;2.00;;
29344;SDS011;16339;48.748;2.222;2023-04-06T13:31:52;7.72;;;2.00;;
29344;SDS011;16339;48.748;2.222;2023-04-06T13:34:21;8.35;;;2.28;;
29344;SDS011;16339;48.748;2.222;2023-04-06T13:36:53;6.90;;;2.30;;
29344;SDS011;16339;48.748;2.222;2023-04-06T13:39:22;3.78;;;1.83;;
29344;SDS011;16339;48.748;2.222;2023-04-06T13:41:53;5.60;;;1.80;;
29344;SDS011;16339;48.748;2.222;2023-04-06T13:44:22;7.93;;;1.95;;
29344;SDS011;16339;48.748;2.222;2023-04-06T13:46:53;9.43;;;2.00;;
29344;SDS011;16339;48.748;2.222;2023-04-06T13:49:23;9.30;;;2.05;;
29344;SDS011;16339;48.748;2.222;2023-04-06T13:51:54;7.10;;;2.13;;
29344;SDS011;16339;48.748;2.222;2023-04-06T13:54:23;8.18;;;1.85;;
29344;SDS011;16339;48.748;2.222;2023-04-06T13:56:53;15.02;;;1.85;;
29344;SDS011;16339;48.748;2.222;2023-04-06T13:59:22;10.10;;;1.85;;
29344;SDS011;16339;48.748;2.222;2023-04-06T14:01:51;6.00;;;2.00;;
29344;SDS011;16339;48.748;2.222;2023-04-06T14:04:20;5.10;;;1.65;;
29344;SDS011;16339;48.748;2.222;2023-04-06T14:06:49;4.15;;;1.40;;
29344;SDS011;16339;48.748;2.222;2023-04-06T14:09:20;7.80;;;1.67;;
29344;SDS011;16339;48.748;2.222;2023-04-06T14:11:49;8.43;;;2.00;;
29344;SDS011;16339;48.748;2.222;2023-04-06T14:14:18;6.65;;;1.45;;
29344;SDS011;16339;48.748;2.222;2023-04-06T14:16:47;8.52;;;1.60;;
29344;SDS011;16339;48.748;2.222;2023-04-06T14:19:16;9.32;;;1.73;;
29344;SDS011;16339;48.748;2.222;2023-04-06T14:21:46;4.70;;;1.98;;
29344;SDS011;16339;48.748;2.222;2023-04-06T14:24:15;10.48;;;1.95;;
29344;SDS011;16339;48.748;2.222;2023-04-06T14:26:48;5.90;;;1.45;;
29344;SDS011;16339;48.748;2.222;2023-04-06T14:29:17;5.93;;;2.13;;
29344;SDS011;16339;48.748;2.222;2023-04-06T14:31:46;6.28;;;1.40;;
29344;SDS011;16339;48.748;2.222;2023-04-06T14:34:15;6.70;;;1.77;;
29344;SDS011;16339;48.748;2.222;2023-04-06T14:36:44;6.72;;;1.73;;
29344;SDS011;16339;48.748;2.222;2023-04-06T14:39:13;5.55;;;1.33;;
29344;SDS011;16339;48.748;2.222;2023-04-06T14:41:41;7.90;;;1.75;;
29344;SDS011;16339;48.748;2.222;2023-04-06T14:44:13;9.27;;;1.80;;
29344;SDS011;16339;48.748;2.222;2023-04-06T14:46:42;5.78;;;1.70;;
29344;SDS011;16339;48.748;2.222;2023-04-06T14:49:11;10.77;;;1.95;;
29344;SDS011;16339;48.748;2.222;2023-04-06T14:51:39;7.30;;;1.52;;
29344;SDS011;16339;48.748;2.222;2023-04-06T14:54:08;11.10;;;2.25;;
29344;SDS011;16339;48.748;2.222;2023-04-06T14:56:37;5.78;;;1.83;;
29344;SDS011;16339;48.748;2.222;2023-04-06T14:59:05;11.85;;;2.00;;
29344;SDS011;16339;48.748;2.222;2023-04-06T15:01:37;5.93;;;1.48;;
29344;SDS011;16339;48.748;2.222;2023-04-06T15:06:34;4.55;;;1.48;;
29344;SDS011;16339;48.748;2.222;2023-04-06T15:09:03;9.45;;;1.70;;